sensor_id;sensor_type;location;lat;lon;timestamp;pressure;altitude;pressure_sealevel;temperature;humidity
22025;BME280;11176;51.448;6.650;2023-02-18T00:01:11;45474.16;;;-141.29;100.00
22025;BME280;11176;51.448;6.650;2023-02-18T00:03:38;45480.16;;;-141.29;100.00
22025;BME280;11176;51.448;6.650;2023-02-18T00:06:30;45470.19;;;-141.29;100.00
22025;BME280;11176;51.448;6.650;2023-02-18T00:08:57;45470.19;;;-141.29;100.00
22025;BME280;11176;51.448;6.650;2023-02-18T00:11:29;45474.16;;;-141.29;100.00
22025;BME280;11176;51.448;6.650;2023-02-18T00:13:58;45490.16;;;-141.29;100.00
22025;BME280;11176;51.448;6.650;2023-02-18T00:16:26;45498.16;;;-141.29;100.00
22025;BME280;11176;51.448;6.650;2023-02-18T00:18:59;45482.16;;;-141.29;100.00
22025;BME280;11176;51.448;6.650;2023-02-18T00:21:27;45498.16;;;-141.29;100.00
22025;BME280;11176;51.448;6.650;2023-02-18T00:23:54;45470.19;;;-141.29;100.00
22025;BME280;11176;51.448;6.650;2023-02-18T00:26:20;45470.19;;;-141.29;100.00
22025;BME280;11176;51.448;6.650;2023-02-18T00:28:48;45498.16;;;-141.29;100.00
22025;BME280;11176;51.448;6.650;2023-02-18T00:31:37;45490.16;;;-141.29;100.00
22025;BME280;11176;51.448;6.650;2023-02-18T00:34:04;45496.16;;;-141.29;100.00
22025;BME280;11176;51.448;6.650;2023-02-18T00:36:30;45478.16;;;-141.29;100.00
22025;BME280;11176;51.448;6.650;2023-02-18T00:38:59;45474.16;;;-141.29;100.00
22025;BME280;11176;51.448;6.650;2023-02-18T00:41:27;45478.16;;;-141.29;100.00
22025;BME280;11176;51.448;6.650;2023-02-18T00:43:54;45494.16;;;-141.29;100.00
22025;BME280;11176;51.448;6.650;2023-02-18T00:46:21;45482.16;;;-141.29;100.00
22025;BME280;11176;51.448;6.650;2023-02-18T00:48:49;45474.16;;;-141.29;100.00
22025;BME280;11176;51.448;6.650;2023-02-18T00:51:15;45498.16;;;-141.29;100.00
22025;BME280;11176;51.448;6.650;2023-02-18T00:53:42;45498.16;;;-141.29;100.00
22025;BME280;11176;51.448;6.650;2023-02-18T00:56:09;45480.16;;;-141.29;100.00
22025;BME280;11176;51.448;6.650;2023-02-18T00:58:36;45486.16;;;-141.29;100.00
22025;BME280;11176;51.448;6.650;2023-02-18T01:01:05;45482.16;;;-141.29;100.00
22025;BME280;11176;51.448;6.650;2023-02-18T01:03:34;45490.16;;;-141.29;100.00
22025;BME280;11176;51.448;6.650;2023-02-18T01:06:01;45486.16;;;-141.29;100.00
22025;BME280;11176;51.448;6.650;2023-02-18T01:08:27;45494.16;;;-141.29;100.00
22025;BME280;11176;51.448;6.650;2023-02-18T01:10:55;45500.16;;;-141.29;100.00
22025;BME280;11176;51.448;6.650;2023-02-18T01:13:27;45488.16;;;-141.29;100.00
22025;BME280;11176;51.448;6.650;2023-02-18T01:15:54;45494.16;;;-141.29;100.00
22025;BME280;11176;51.448;6.650;2023-02-18T01:18:21;45494.16;;;-141.29;100.00
22025;BME280;11176;51.448;6.650;2023-02-18T01:20:47;45492.16;;;-141.29;100.00
22025;BME280;11176;51.448;6.650;2023-02-18T01:23:15;45494.16;;;-141.29;100.00
22025;BME280;11176;51.448;6.650;2023-02-18T01:25:41;45494.16;;;-141.29;100.00
22025;BME280;11176;51.448;6.650;2023-02-18T01:28:10;45500.16;;;-141.29;100.00
22025;BME280;11176;51.448;6.650;2023-02-18T01:30:37;45482.16;;;-141.29;100.00
22025;BME280;11176;51.448;6.650;2023-02-18T01:33:04;45494.16;;;-141.29;100.00
22025;BME280;11176;51.448;6.650;2023-02-18T01:35:31;45490.16;;;-141.29;100.00
22025;BME280;11176;51.448;6.650;2023-02-18T01:37:57;45488.16;;;-141.29;100.00
22025;BME280;11176;51.448;6.650;2023-02-18T01:40:26;45476.16;;;-141.29;100.00
22025;BME280;11176;51.448;6.650;2023-02-18T01:42:54;45484.16;;;-141.29;100.00
22025;BME280;11176;51.448;6.650;2023-02-18T01:48:16;45498.16;;;-141.29;100.00
22025;BME280;11176;51.448;6.650;2023-02-18T01:50:50;45482.16;;;-141.29;100.00
22025;BME280;11176;51.448;6.650;2023-02-18T01:53:28;45466.19;;;-141.29;100.00
22025;BME280;11176;51.448;6.650;2023-02-18T01:55:57;45482.16;;;-141.29;100.00
22025;BME280;11176;51.448;6.650;2023-02-18T01:58:25;45486.16;;;-141.29;100.00
22025;BME280;11176;51.448;6.650;2023-02-18T02:00:51;45466.19;;;-141.29;100.00
22025;BME280;11176;51.448;6.650;2023-02-18T02:03:18;45496.16;;;-141.29;100.00
22025;BME280;11176;51.448;6.650;2023-02-18T02:05:44;45492.16;;;-141.29;100.00
22025;BME280;11176;51.448;6.650;2023-02-18T02:08:15;45478.16;;;-141.29;100.00
22025;BME280;11176;51.448;6.650;2023-02-18T02:11:10;45472.16;;;-141.29;100.00
22025;BME280;11176;51.448;6.650;2023-02-18T02:13:52;45482.16;;;-141.29;100.00
22025;BME280;11176;51.448;6.650;2023-02-18T02:16:40;45500.16;;;-141.29;100.00
22025;BME280;11176;51.448;6.650;2023-02-18T02:22:13;45502.16;;;-141.29;100.00
22025;BME280;11176;51.448;6.650;2023-02-18T02:27:46;45494.16;;;-141.29;100.00
22025;BME280;11176;51.448;6.650;2023-02-18T02:34:27;45478.16;;;-141.29;100.00
22025;BME280;11176;51.448;6.650;2023-02-18T02:36:40;45492.16;;;-141.29;100.00
22025;BME280;11176;51.448;6.650;2023-02-18T02:39:19;45482.16;;;-141.29;100.00
22025;BME280;11176;51.448;6.650;2023-02-18T02:44:34;45494.16;;;-141.29;100.00
22025;BME280;11176;51.448;6.650;2023-02-18T02:47:09;45494.16;;;-141.29;100.00
22025;BME280;11176;51.448;6.650;2023-02-18T02:52:40;45474.16;;;-141.29;100.00
22025;BME280;11176;51.448;6.650;2023-02-18T02:55:11;45490.16;;;-141.29;100.00
22025;BME280;11176;51.448;6.650;2023-02-18T02:57:46;45496.16;;;-141.29;100.00
22025;BME280;11176;51.448;6.650;2023-02-18T03:00:25;45512.16;;;-141.29;100.00
22025;BME280;11176;51.448;6.650;2023-02-18T03:03:16;45486.16;;;-141.29;100.00
22025;BME280;11176;51.448;6.650;2023-02-18T03:08:40;45498.16;;;-141.29;100.00
22025;BME280;11176;51.448;6.650;2023-02-18T03:11:14;45478.16;;;-141.29;100.00
22025;BME280;11176;51.448;6.650;2023-02-18T03:14:09;45504.16;;;-141.29;100.00
22025;BME280;11176;51.448;6.650;2023-02-18T03:16:54;45488.16;;;-141.29;100.00
22025;BME280;11176;51.448;6.650;2023-02-18T03:19:39;45502.16;;;-141.29;100.00
22025;BME280;11176;51.448;6.650;2023-02-18T03:22:16;45494.16;;;-141.29;100.00
22025;BME280;11176;51.448;6.650;2023-02-18T03:24:49;45498.16;;;-141.29;100.00
22025;BME280;11176;51.448;6.650;2023-02-18T03:27:40;45486.16;;;-141.29;100.00
22025;BME280;11176;51.448;6.650;2023-02-18T03:30:15;45490.16;;;-141.29;100.00
22025;BME280;11176;51.448;6.650;2023-02-18T03:32:44;45518.13;;;-141.29;100.00
22025;BME280;11176;51.448;6.650;2023-02-18T03:35:14;45496.16;;;-141.29;100.00
22025;BME280;11176;51.448;6.650;2023-02-18T03:37:49;45504.16;;;-141.29;100.00
22025;BME280;11176;51.448;6.650;2023-02-18T03:40:17;45484.16;;;-141.29;100.00
22025;BME280;11176;51.448;6.650;2023-02-18T03:42:44;45486.16;;;-141.29;100.00
22025;BME280;11176;51.448;6.650;2023-02-18T03:45:11;45500.16;;;-141.29;100.00
22025;BME280;11176;51.448;6.650;2023-02-18T03:47:40;45510.16;;;-141.29;100.00
22025;BME280;11176;51.448;6.650;2023-02-18T03:50:07;45514.13;;;-141.29;100.00
22025;BME280;11176;51.448;6.650;2023-02-18T03:52:34;45498.16;;;-141.29;100.00
22025;BME280;11176;51.448;6.650;2023-02-18T03:55:05;45516.13;;;-141.29;100.00
22025;BME280;11176;51.448;6.650;2023-02-18T03:57:32;45502.16;;;-141.29;100.00
22025;BME280;11176;51.448;6.650;2023-02-18T03:59:58;45490.16;;;-141.29;100.00
22025;BME280;11176;51.448;6.650;2023-02-18T04:02:24;45506.16;;;-141.29;100.00
22025;BME280;11176;51.448;6.650;2023-02-18T04:04:51;45500.16;;;-141.29;100.00
22025;BME280;11176;51.448;6.650;2023-02-18T04:07:18;45492.16;;;-141.29;100.00
22025;BME280;11176;51.448;6.650;2023-02-18T04:09:44;45500.16;;;-141.29;100.00
22025;BME280;11176;51.448;6.650;2023-02-18T04:12:10;45498.16;;;-141.29;100.00
22025;BME280;11176;51.448;6.650;2023-02-18T04:14:37;45510.16;;;-141.29;100.00
22025;BME280;11176;51.448;6.650;2023-02-18T04:17:03;45490.16;;;-141.29;100.00
22025;BME280;11176;51.448;6.650;2023-02-18T04:19:30;45502.16;;;-141.29;100.00
22025;BME280;11176;51.448;6.650;2023-02-18T04:21:56;45528.13;;;-141.29;100.00
22025;BME280;11176;51.448;6.650;2023-02-18T04:24:22;45520.13;;;-141.29;100.00
22025;BME280;11176;51.448;6.650;2023-02-18T04:26:49;45498.16;;;-141.29;100.00
22025;BME280;11176;51.448;6.650;2023-02-18T04:29:15;45508.16;;;-141.29;100.00
22025;BME280;11176;51.448;6.650;2023-02-18T04:31:42;45516.13;;;-141.29;100.00
22025;BME280;11176;51.448;6.650;2023-02-18T04:34:08;45500.16;;;-141.29;100.00
22025;BME280;11176;51.448;6.650;2023-02-18T04:36:35;45512.16;;;-141.29;100.00
22025;BME280;11176;51.448;6.650;2023-02-18T04:39:02;45496.16;;;-141.29;100.00
22025;BME280;11176;51.448;6.650;2023-02-18T04:41:28;45500.16;;;-141.29;100.00
22025;BME280;11176;51.448;6.650;2023-02-18T04:43:55;45502.16;;;-141.29;100.00
22025;BME280;11176;51.448;6.650;2023-02-18T04:46:21;45506.16;;;-141.29;100.00
22025;BME280;11176;51.448;6.650;2023-02-18T04:48:48;45518.13;;;-141.29;100.00
22025;BME280;11176;51.448;6.650;2023-02-18T04:51:14;45524.13;;;-141.29;100.00
22025;BME280;11176;51.448;6.650;2023-02-18T04:53:41;45506.16;;;-141.29;100.00
22025;BME280;11176;51.448;6.650;2023-02-18T04:56:07;45522.13;;;-141.29;100.00
22025;BME280;11176;51.448;6.650;2023-02-18T04:58:34;45518.13;;;-141.29;100.00
22025;BME280;11176;51.448;6.650;2023-02-18T05:01:02;45486.16;;;-141.29;100.00
22025;BME280;11176;51.448;6.650;2023-02-18T05:03:30;45510.16;;;-141.29;100.00
22025;BME280;11176;51.448;6.650;2023-02-18T05:05:57;45500.16;;;-141.29;100.00
22025;BME280;11176;51.448;6.650;2023-02-18T05:08:24;45510.16;;;-141.29;100.00
22025;BME280;11176;51.448;6.650;2023-02-18T05:10:50;45502.16;;;-141.29;100.00
22025;BME280;11176;51.448;6.650;2023-02-18T05:13:17;45522.13;;;-141.29;100.00
22025;BME280;11176;51.448;6.650;2023-02-18T05:15:43;45496.16;;;-141.29;100.00
22025;BME280;11176;51.448;6.650;2023-02-18T05:18:10;45514.13;;;-141.29;100.00
22025;BME280;11176;51.448;6.650;2023-02-18T05:20:36;45506.16;;;-141.29;100.00
22025;BME280;11176;51.448;6.650;2023-02-18T05:23:02;45530.13;;;-141.29;100.00
22025;BME280;11176;51.448;6.650;2023-02-18T05:25:29;45510.16;;;-141.29;100.00
22025;BME280;11176;51.448;6.650;2023-02-18T05:27:55;45508.16;;;-141.29;100.00
22025;BME280;11176;51.448;6.650;2023-02-18T05:30:22;45534.13;;;-141.29;100.00
22025;BME280;11176;51.448;6.650;2023-02-18T05:32:48;45508.16;;;-141.29;100.00
22025;BME280;11176;51.448;6.650;2023-02-18T05:35:15;45520.13;;;-141.29;100.00
22025;BME280;11176;51.448;6.650;2023-02-18T05:37:41;45510.16;;;-141.29;100.00
22025;BME280;11176;51.448;6.650;2023-02-18T05:40:09;45530.13;;;-141.29;100.00
22025;BME280;11176;51.448;6.650;2023-02-18T05:42:36;45514.13;;;-141.29;100.00
22025;BME280;11176;51.448;6.650;2023-02-18T05:45:03;45534.13;;;-141.29;100.00
22025;BME280;11176;51.448;6.650;2023-02-18T05:47:29;45522.13;;;-141.29;100.00
22025;BME280;11176;51.448;6.650;2023-02-18T05:49:56;45520.13;;;-141.29;100.00
22025;BME280;11176;51.448;6.650;2023-02-18T05:52:22;45526.13;;;-141.29;100.00
22025;BME280;11176;51.448;6.650;2023-02-18T05:54:49;45524.13;;;-141.29;100.00
22025;BME280;11176;51.448;6.650;2023-02-18T05:57:15;45526.13;;;-141.29;100.00
22025;BME280;11176;51.448;6.650;2023-02-18T05:59:41;45520.13;;;-141.29;100.00
22025;BME280;11176;51.448;6.650;2023-02-18T06:02:08;45518.13;;;-141.29;100.00
22025;BME280;11176;51.448;6.650;2023-02-18T06:04:35;45538.13;;;-141.29;100.00
22025;BME280;11176;51.448;6.650;2023-02-18T06:07:02;45530.13;;;-141.29;100.00
22025;BME280;11176;51.448;6.650;2023-02-18T06:09:28;45530.13;;;-141.29;100.00
22025;BME280;11176;51.448;6.650;2023-02-18T06:11:54;45520.13;;;-141.29;100.00
22025;BME280;11176;51.448;6.650;2023-02-18T06:14:21;45528.13;;;-141.29;100.00
22025;BME280;11176;51.448;6.650;2023-02-18T06:16:47;45522.13;;;-141.29;100.00
22025;BME280;11176;51.448;6.650;2023-02-18T06:19:14;45530.13;;;-141.29;100.00
22025;BME280;11176;51.448;6.650;2023-02-18T06:21:40;45510.16;;;-141.29;100.00
22025;BME280;11176;51.448;6.650;2023-02-18T06:24:07;45534.13;;;-141.29;100.00
22025;BME280;11176;51.448;6.650;2023-02-18T06:26:34;45504.16;;;-141.29;100.00
22025;BME280;11176;51.448;6.650;2023-02-18T06:29:00;45514.13;;;-141.29;100.00
22025;BME280;11176;51.448;6.650;2023-02-18T06:31:27;45522.13;;;-141.29;100.00
22025;BME280;11176;51.448;6.650;2023-02-18T06:33:53;45518.13;;;-141.29;100.00
22025;BME280;11176;51.448;6.650;2023-02-18T06:36:20;45512.16;;;-141.29;100.00
22025;BME280;11176;51.448;6.650;2023-02-18T06:38:46;45522.13;;;-141.29;100.00
22025;BME280;11176;51.448;6.650;2023-02-18T06:41:14;45506.16;;;-141.29;100.00
22025;BME280;11176;51.448;6.650;2023-02-18T06:43:40;45510.16;;;-141.29;100.00
22025;BME280;11176;51.448;6.650;2023-02-18T06:46:07;45526.13;;;-141.29;100.00
22025;BME280;11176;51.448;6.650;2023-02-18T06:48:34;45534.13;;;-141.29;100.00
22025;BME280;11176;51.448;6.650;2023-02-18T06:51:01;45522.13;;;-141.29;100.00
22025;BME280;11176;51.448;6.650;2023-02-18T06:53:27;45516.13;;;-141.29;100.00
22025;BME280;11176;51.448;6.650;2023-02-18T06:55:54;45534.13;;;-141.29;100.00
22025;BME280;11176;51.448;6.650;2023-02-18T06:58:20;45538.13;;;-141.29;100.00
22025;BME280;11176;51.448;6.650;2023-02-18T07:00:48;45550.13;;;-141.29;100.00
22025;BME280;11176;51.448;6.650;2023-02-18T07:03:15;45526.13;;;-141.29;100.00
22025;BME280;11176;51.448;6.650;2023-02-18T07:05:42;45522.13;;;-141.29;100.00
22025;BME280;11176;51.448;6.650;2023-02-18T07:08:08;45522.13;;;-141.29;100.00
22025;BME280;11176;51.448;6.650;2023-02-18T07:10:35;45522.13;;;-141.29;100.00
22025;BME280;11176;51.448;6.650;2023-02-18T07:13:03;45528.13;;;-141.29;100.00
22025;BME280;11176;51.448;6.650;2023-02-18T07:15:29;45546.13;;;-141.29;100.00
22025;BME280;11176;51.448;6.650;2023-02-18T07:17:56;45526.13;;;-141.29;100.00
22025;BME280;11176;51.448;6.650;2023-02-18T07:20:23;45542.13;;;-141.29;100.00
22025;BME280;11176;51.448;6.650;2023-02-18T07:22:50;45518.13;;;-141.29;100.00
22025;BME280;11176;51.448;6.650;2023-02-18T07:25:17;45538.13;;;-141.29;100.00
22025;BME280;11176;51.448;6.650;2023-02-18T07:27:44;45524.13;;;-141.29;100.00
22025;BME280;11176;51.448;6.650;2023-02-18T07:30:10;45534.13;;;-141.29;100.00
22025;BME280;11176;51.448;6.650;2023-02-18T07:32:37;45540.13;;;-141.29;100.00
22025;BME280;11176;51.448;6.650;2023-02-18T07:35:05;45522.13;;;-141.29;100.00
22025;BME280;11176;51.448;6.650;2023-02-18T07:37:31;45516.13;;;-141.29;100.00
22025;BME280;11176;51.448;6.650;2023-02-18T07:39:58;45516.13;;;-141.29;100.00
22025;BME280;11176;51.448;6.650;2023-02-18T07:42:24;45526.13;;;-141.29;100.00
22025;BME280;11176;51.448;6.650;2023-02-18T07:44:51;45542.13;;;-141.29;100.00
22025;BME280;11176;51.448;6.650;2023-02-18T07:47:17;45522.13;;;-141.29;100.00
22025;BME280;11176;51.448;6.650;2023-02-18T07:49:46;45522.13;;;-141.29;100.00
22025;BME280;11176;51.448;6.650;2023-02-18T07:52:14;45520.13;;;-141.29;100.00
22025;BME280;11176;51.448;6.650;2023-02-18T07:54:41;45530.13;;;-141.29;100.00
22025;BME280;11176;51.448;6.650;2023-02-18T07:57:08;45526.13;;;-141.29;100.00
22025;BME280;11176;51.448;6.650;2023-02-18T07:59:34;45522.13;;;-141.29;100.00
22025;BME280;11176;51.448;6.650;2023-02-18T08:02:01;45526.13;;;-141.29;100.00
22025;BME280;11176;51.448;6.650;2023-02-18T08:04:28;45534.13;;;-141.29;100.00
22025;BME280;11176;51.448;6.650;2023-02-18T08:06:54;45522.13;;;-141.29;100.00
22025;BME280;11176;51.448;6.650;2023-02-18T08:09:21;45522.13;;;-141.29;100.00
22025;BME280;11176;51.448;6.650;2023-02-18T08:11:47;45538.13;;;-141.29;100.00
22025;BME280;11176;51.448;6.650;2023-02-18T08:14:14;45514.13;;;-141.29;100.00
22025;BME280;11176;51.448;6.650;2023-02-18T08:16:40;45538.13;;;-141.29;100.00
22025;BME280;11176;51.448;6.650;2023-02-18T08:19:07;45530.13;;;-141.29;100.00
22025;BME280;11176;51.448;6.650;2023-02-18T08:21:33;45546.13;;;-141.29;100.00
22025;BME280;11176;51.448;6.650;2023-02-18T08:24:00;45544.13;;;-141.29;100.00
22025;BME280;11176;51.448;6.650;2023-02-18T08:26:28;45528.13;;;-141.29;100.00
22025;BME280;11176;51.448;6.650;2023-02-18T08:28:54;45528.13;;;-141.29;100.00
22025;BME280;11176;51.448;6.650;2023-02-18T08:31:24;45530.13;;;-141.29;100.00
22025;BME280;11176;51.448;6.650;2023-02-18T08:33:55;45538.13;;;-141.29;100.00
22025;BME280;11176;51.448;6.650;2023-02-18T08:36:22;45524.13;;;-141.29;100.00
22025;BME280;11176;51.448;6.650;2023-02-18T08:38:49;45534.13;;;-141.29;100.00
22025;BME280;11176;51.448;6.650;2023-02-18T08:41:16;45522.13;;;-141.29;100.00
22025;BME280;11176;51.448;6.650;2023-02-18T08:43:44;45530.13;;;-141.29;100.00
22025;BME280;11176;51.448;6.650;2023-02-18T08:46:11;45534.13;;;-141.29;100.00
22025;BME280;11176;51.448;6.650;2023-02-18T08:48:42;45500.16;;;-141.29;100.00
22025;BME280;11176;51.448;6.650;2023-02-18T08:51:21;45518.13;;;-141.29;100.00
22025;BME280;11176;51.448;6.650;2023-02-18T08:53:48;45534.13;;;-141.29;100.00
22025;BME280;11176;51.448;6.650;2023-02-18T08:56:15;45526.13;;;-141.29;100.00
22025;BME280;11176;51.448;6.650;2023-02-18T08:58:42;45518.13;;;-141.29;100.00
22025;BME280;11176;51.448;6.650;2023-02-18T09:01:11;45538.13;;;-141.29;100.00
22025;BME280;11176;51.448;6.650;2023-02-18T09:03:38;45522.13;;;-141.29;100.00
22025;BME280;11176;51.448;6.650;2023-02-18T09:06:05;45548.13;;;-141.29;100.00
22025;BME280;11176;51.448;6.650;2023-02-18T09:08:32;45548.13;;;-141.29;100.00
22025;BME280;11176;51.448;6.650;2023-02-18T09:11:00;45526.13;;;-141.29;100.00
22025;BME280;11176;51.448;6.650;2023-02-18T09:13:30;45522.13;;;-141.29;100.00
22025;BME280;11176;51.448;6.650;2023-02-18T09:16:01;45510.16;;;-141.29;100.00
22025;BME280;11176;51.448;6.650;2023-02-18T09:18:30;45538.13;;;-141.29;100.00
22025;BME280;11176;51.448;6.650;2023-02-18T09:20:58;45512.16;;;-141.29;100.00
22025;BME280;11176;51.448;6.650;2023-02-18T09:23:27;45518.13;;;-141.29;100.00
22025;BME280;11176;51.448;6.650;2023-02-18T09:25:54;45538.13;;;-141.29;100.00
22025;BME280;11176;51.448;6.650;2023-02-18T09:28:21;45542.13;;;-141.29;100.00
22025;BME280;11176;51.448;6.650;2023-02-18T09:30:48;45538.13;;;-141.29;100.00
22025;BME280;11176;51.448;6.650;2023-02-18T09:33:16;45520.13;;;-141.29;100.00
22025;BME280;11176;51.448;6.650;2023-02-18T09:35:44;45542.13;;;-141.29;100.00
22025;BME280;11176;51.448;6.650;2023-02-18T09:38:15;45518.13;;;-141.29;100.00
22025;BME280;11176;51.448;6.650;2023-02-18T09:40:47;45546.13;;;-141.29;100.00
22025;BME280;11176;51.448;6.650;2023-02-18T09:43:23;45502.16;;;-141.29;100.00
22025;BME280;11176;51.448;6.650;2023-02-18T09:45:53;45534.13;;;-141.29;100.00
22025;BME280;11176;51.448;6.650;2023-02-18T09:48:26;45524.13;;;-141.29;99.63
22025;BME280;11176;51.448;6.650;2023-02-18T09:50:53;45530.13;;;-141.29;99.14
22025;BME280;11176;51.448;6.650;2023-02-18T09:53:21;45518.13;;;-141.29;99.79
22025;BME280;11176;51.448;6.650;2023-02-18T09:55:52;45534.13;;;-141.29;99.81
22025;BME280;11176;51.448;6.650;2023-02-18T09:58:22;45546.13;;;-141.29;99.63
22025;BME280;11176;51.448;6.650;2023-02-18T10:03:28;45516.13;;;-141.29;99.97
22025;BME280;11176;51.448;6.650;2023-02-18T10:06:00;45542.13;;;-141.29;100.00
22025;BME280;11176;51.448;6.650;2023-02-18T10:08:37;45522.13;;;-141.29;100.00
22025;BME280;11176;51.448;6.650;2023-02-18T10:11:11;45528.13;;;-141.29;100.00
22025;BME280;11176;51.448;6.650;2023-02-18T10:13:43;45530.13;;;-141.29;100.00
22025;BME280;11176;51.448;6.650;2023-02-18T10:16:14;45512.16;;;-141.29;100.00
22025;BME280;11176;51.448;6.650;2023-02-18T10:18:45;45522.13;;;-141.29;100.00
22025;BME280;11176;51.448;6.650;2023-02-18T10:21:18;45530.13;;;-141.29;100.00
22025;BME280;11176;51.448;6.650;2023-02-18T10:24:06;45546.13;;;-141.29;100.00
22025;BME280;11176;51.448;6.650;2023-02-18T10:26:36;45530.13;;;-141.29;100.00
22025;BME280;11176;51.448;6.650;2023-02-18T10:29:03;45528.13;;;-141.29;100.00
22025;BME280;11176;51.448;6.650;2023-02-18T10:31:36;45530.13;;;-141.29;100.00
22025;BME280;11176;51.448;6.650;2023-02-18T10:34:10;45510.16;;;-141.29;100.00
22025;BME280;11176;51.448;6.650;2023-02-18T10:36:56;45524.13;;;-141.29;100.00
22025;BME280;11176;51.448;6.650;2023-02-18T10:45:16;45522.13;;;-141.29;100.00
22025;BME280;11176;51.448;6.650;2023-02-18T10:50:27;45550.13;;;-141.29;100.00
22025;BME280;11176;51.448;6.650;2023-02-18T10:52:58;45536.13;;;-141.29;100.00
22025;BME280;11176;51.448;6.650;2023-02-18T10:55:36;45526.13;;;-141.29;100.00
22025;BME280;11176;51.448;6.650;2023-02-18T10:58:03;45530.13;;;-141.29;100.00
22025;BME280;11176;51.448;6.650;2023-02-18T11:00:49;45540.13;;;-141.29;100.00
22025;BME280;11176;51.448;6.650;2023-02-18T11:03:36;45518.13;;;-141.29;100.00
22025;BME280;11176;51.448;6.650;2023-02-18T11:06:05;45542.13;;;-141.29;100.00
22025;BME280;11176;51.448;6.650;2023-02-18T11:08:42;45546.13;;;-141.29;100.00
22025;BME280;11176;51.448;6.650;2023-02-18T11:11:29;45542.13;;;-141.29;100.00
22025;BME280;11176;51.448;6.650;2023-02-18T11:13:59;45546.13;;;-141.29;100.00
22025;BME280;11176;51.448;6.650;2023-02-18T11:16:39;45538.13;;;-141.29;100.00
22025;BME280;11176;51.448;6.650;2023-02-18T11:19:36;45542.13;;;-141.29;100.00
22025;BME280;11176;51.448;6.650;2023-02-18T11:22:24;45538.13;;;-141.29;100.00
22025;BME280;11176;51.448;6.650;2023-02-18T11:24:59;45554.09;;;-141.29;100.00
22025;BME280;11176;51.448;6.650;2023-02-18T11:27:43;45542.13;;;-141.29;100.00
22025;BME280;11176;51.448;6.650;2023-02-18T11:30:21;45546.13;;;-141.29;100.00
22025;BME280;11176;51.448;6.650;2023-02-18T11:32:52;45538.13;;;-141.29;100.00
22025;BME280;11176;51.448;6.650;2023-02-18T11:35:23;45554.09;;;-141.29;100.00
22025;BME280;11176;51.448;6.650;2023-02-18T11:37:50;45534.13;;;-141.29;100.00
22025;BME280;11176;51.448;6.650;2023-02-18T11:40:27;45558.09;;;-141.29;100.00
22025;BME280;11176;51.448;6.650;2023-02-18T11:43:14;45548.13;;;-141.29;100.00
22025;BME280;11176;51.448;6.650;2023-02-18T11:45:41;45534.13;;;-141.29;100.00
22025;BME280;11176;51.448;6.650;2023-02-18T11:48:22;45538.13;;;-141.29;100.00
22025;BME280;11176;51.448;6.650;2023-02-18T11:50:51;45554.09;;;-141.29;100.00
22025;BME280;11176;51.448;6.650;2023-02-18T11:53:28;45538.13;;;-141.29;100.00
22025;BME280;11176;51.448;6.650;2023-02-18T11:55:57;45562.09;;;-141.29;100.00
22025;BME280;11176;51.448;6.650;2023-02-18T11:58:24;45536.13;;;-141.29;100.00
22025;BME280;11176;51.448;6.650;2023-02-18T12:00:54;45554.09;;;-141.29;100.00
22025;BME280;11176;51.448;6.650;2023-02-18T12:03:39;45522.13;;;-141.29;100.00
22025;BME280;11176;51.448;6.650;2023-02-18T12:06:21;45554.09;;;-141.29;100.00
22025;BME280;11176;51.448;6.650;2023-02-18T12:08:51;45530.13;;;-141.29;100.00
22025;BME280;11176;51.448;6.650;2023-02-18T12:11:41;45534.13;;;-141.29;100.00
22025;BME280;11176;51.448;6.650;2023-02-18T12:14:15;45550.13;;;-141.29;100.00
22025;BME280;11176;51.448;6.650;2023-02-18T12:24:55;45534.13;;;-141.29;100.00
22025;BME280;11176;51.448;6.650;2023-02-18T12:27:34;45550.13;;;-141.29;100.00
22025;BME280;11176;51.448;6.650;2023-02-18T12:34:11;45558.09;;;-141.29;100.00
22025;BME280;11176;51.448;6.650;2023-02-18T12:36:57;45544.13;;;-141.29;100.00
22025;BME280;11176;51.448;6.650;2023-02-18T12:44:43;45548.13;;;-141.29;100.00
22025;BME280;11176;51.448;6.650;2023-02-18T12:47:21;45538.13;;;-141.29;100.00
22025;BME280;11176;51.448;6.650;2023-02-18T12:49:58;45542.13;;;-141.29;100.00
22025;BME280;11176;51.448;6.650;2023-02-18T12:53:14;45542.13;;;-141.29;100.00
22025;BME280;11176;51.448;6.650;2023-02-18T12:55:24;45538.13;;;-141.29;100.00
22025;BME280;11176;51.448;6.650;2023-02-18T12:58:15;45550.13;;;-141.29;100.00
22025;BME280;11176;51.448;6.650;2023-02-18T13:04:00;45542.13;;;-141.29;100.00
22025;BME280;11176;51.448;6.650;2023-02-18T13:06:59;45554.09;;;-141.29;100.00
22025;BME280;11176;51.448;6.650;2023-02-18T13:09:56;45550.13;;;-141.29;100.00
22025;BME280;11176;51.448;6.650;2023-02-18T13:12:30;45550.13;;;-141.29;100.00
22025;BME280;11176;51.448;6.650;2023-02-18T13:15:15;45546.13;;;-141.29;100.00
22025;BME280;11176;51.448;6.650;2023-02-18T13:17:44;45542.13;;;-141.29;100.00
22025;BME280;11176;51.448;6.650;2023-02-18T13:20:24;45526.13;;;-141.29;100.00
22025;BME280;11176;51.448;6.650;2023-02-18T13:22:55;45534.13;;;-141.29;100.00
22025;BME280;11176;51.448;6.650;2023-02-18T13:25:22;45546.13;;;-141.29;100.00
22025;BME280;11176;51.448;6.650;2023-02-18T13:28:09;45544.13;;;-141.29;100.00
22025;BME280;11176;51.448;6.650;2023-02-18T13:30:46;45534.13;;;-141.29;100.00
22025;BME280;11176;51.448;6.650;2023-02-18T13:33:21;45522.13;;;-141.29;100.00
22025;BME280;11176;51.448;6.650;2023-02-18T13:39:03;45534.13;;;-141.29;100.00
22025;BME280;11176;51.448;6.650;2023-02-18T13:41:50;45554.09;;;-141.29;100.00
22025;BME280;11176;51.448;6.650;2023-02-18T13:46:48;45534.13;;;-141.29;100.00